createdAt,value
2023-04-24T06:21:06.158Z,100.00
2023-04-24T06:31:06.238Z,100.00
2023-04-24T06:41:06.206Z,100.00
2023-04-24T06:51:06.549Z,100.00
2023-04-24T07:01:06.276Z,100.00
2023-04-24T07:11:06.210Z,100.00
2023-04-24T07:21:06.282Z,100.00
2023-04-24T07:31:06.257Z,100.00
2023-04-24T07:41:06.292Z,98.87
2023-04-24T07:51:06.250Z,94.45
2023-04-24T08:01:06.233Z,89.19
2023-04-24T08:11:06.329Z,84.89
2023-04-24T08:21:06.270Z,81.69
2023-04-24T08:31:06.308Z,81.85
2023-04-24T08:41:06.372Z,82.37
2023-04-24T08:51:06.449Z,75.97
2023-04-24T09:01:06.719Z,74.49
2023-04-24T09:11:06.781Z,75.72
2023-04-24T09:21:06.742Z,75.50
2023-04-24T09:31:06.823Z,77.42
2023-04-24T09:41:06.767Z,75.86
2023-04-24T09:51:06.749Z,75.91
2023-04-24T10:01:06.840Z,73.97
2023-04-24T10:11:06.719Z,72.06
2023-04-24T10:21:06.625Z,72.89
2023-04-24T10:31:06.826Z,73.74
2023-04-24T10:41:06.765Z,75.02
2023-04-24T10:51:06.834Z,72.95
2023-04-24T11:01:06.807Z,74.00
2023-04-24T11:11:06.750Z,74.39
2023-04-24T11:21:06.924Z,73.50
2023-04-24T11:31:06.894Z,75.00
2023-04-24T11:41:06.956Z,85.53
2023-04-24T11:51:06.918Z,88.78
2023-04-24T12:01:06.767Z,86.20
2023-04-24T12:11:06.848Z,81.59
2023-04-24T12:21:06.687Z,78.97
2023-04-24T12:31:06.777Z,75.12
2023-04-24T12:41:06.824Z,76.66
2023-04-24T12:51:06.902Z,81.54
2023-04-24T13:01:06.917Z,86.08
2023-04-24T13:11:06.913Z,85.18
2023-04-24T13:21:06.987Z,81.72
2023-04-24T13:31:06.773Z,85.46
2023-04-24T13:41:06.933Z,93.24
2023-04-24T13:51:06.767Z,96.12
2023-04-24T14:01:06.793Z,96.10
2023-04-24T14:11:06.807Z,100.00
2023-04-24T14:21:06.894Z,100.00
2023-04-24T14:31:07.165Z,100.00
2023-04-24T14:41:09.129Z,100.00
2023-04-24T14:51:06.965Z,100.00
2023-04-24T15:01:06.932Z,100.00
2023-04-24T15:11:07.017Z,100.00
2023-04-24T15:21:06.847Z,100.00
2023-04-24T15:31:06.847Z,100.00
2023-04-24T15:41:08.007Z,100.00
2023-04-24T15:51:07.073Z,100.00
2023-04-24T16:01:07.042Z,100.00
2023-04-24T16:11:07.026Z,100.00
2023-04-24T16:21:07.037Z,100.00
2023-04-24T16:31:07.070Z,100.00
2023-04-24T16:41:07.004Z,100.00
2023-04-24T16:51:07.140Z,100.00
2023-04-24T17:01:07.244Z,100.00
2023-04-24T17:11:07.064Z,100.00
2023-04-24T17:21:07.134Z,100.00
2023-04-24T17:31:06.985Z,100.00
2023-04-24T17:41:07.149Z,100.00
2023-04-24T17:51:07.328Z,100.00
2023-04-24T18:01:07.246Z,100.00
2023-04-24T18:11:07.269Z,100.00
2023-04-24T18:21:07.226Z,100.00
2023-04-24T18:31:07.194Z,100.00
2023-04-24T18:41:07.244Z,100.00
2023-04-24T18:51:08.227Z,100.00
2023-04-24T19:01:08.307Z,100.00
2023-04-24T19:11:07.434Z,100.00
2023-04-24T19:21:07.408Z,100.00
